createdAt,value
2023-05-09T00:00:06.808Z,1008.48
2023-05-09T00:00:27.873Z,1008.48
2023-05-09T00:00:48.939Z,1008.46
2023-05-09T00:01:09.993Z,1008.45
2023-05-09T00:01:31.053Z,1008.46
2023-05-09T00:01:52.141Z,1008.45
2023-05-09T00:02:13.250Z,1008.45
2023-05-09T00:02:34.367Z,1008.45
2023-05-09T00:02:55.719Z,1008.45
2023-05-09T00:03:16.887Z,1008.45
2023-05-09T00:03:37.931Z,1008.46
2023-05-09T00:03:59.082Z,1008.43
2023-05-09T00:04:20.166Z,1008.45
2023-05-09T00:04:41.307Z,1008.43
2023-05-09T00:05:02.365Z,1008.43
2023-05-09T00:05:23.417Z,1008.43
2023-05-09T00:05:44.495Z,1008.41
2023-05-09T00:06:05.543Z,1008.43
2023-05-09T00:06:26.600Z,1008.43
2023-05-09T00:06:47.655Z,1008.43
2023-05-09T00:07:08.720Z,1008.45
2023-05-09T00:07:29.793Z,1008.41
2023-05-09T00:07:50.886Z,1008.39
2023-05-09T00:08:11.969Z,1008.41
2023-05-09T00:08:33.249Z,1008.39
2023-05-09T00:08:54.320Z,1008.37
2023-05-09T00:09:15.397Z,1008.41
2023-05-09T00:09:36.471Z,1008.41
2023-05-09T00:09:57.535Z,1008.39
2023-05-09T00:10:18.605Z,1008.43
2023-05-09T00:10:39.663Z,1008.41
2023-05-09T00:11:00.715Z,1008.43
2023-05-09T00:11:21.766Z,1008.39
2023-05-09T00:11:42.844Z,1008.41
2023-05-09T00:12:03.915Z,1008.39
2023-05-09T00:12:24.964Z,1008.39
2023-05-09T00:12:46.057Z,1008.39
2023-05-09T00:13:07.128Z,1008.39
2023-05-09T00:13:28.441Z,1008.37
2023-05-09T00:13:49.513Z,1008.39
2023-05-09T00:14:10.722Z,1008.39
2023-05-09T00:14:31.741Z,1008.37
2023-05-09T00:14:52.800Z,1008.37
2023-05-09T00:15:14.157Z,1008.37
2023-05-09T00:15:35.332Z,1008.35
2023-05-09T00:15:56.396Z,1008.35
2023-05-09T00:16:17.521Z,1008.35
2023-05-09T00:16:38.595Z,1008.33
2023-05-09T00:16:59.653Z,1008.33
2023-05-09T00:17:20.736Z,1008.33
2023-05-09T00:17:41.821Z,1008.33
2023-05-09T00:18:02.959Z,1008.31
2023-05-09T00:18:24.025Z,1008.31
2023-05-09T00:18:45.308Z,1008.33
2023-05-09T00:19:06.574Z,1008.29
2023-05-09T00:19:27.646Z,1008.31
2023-05-09T00:19:48.701Z,1008.31
2023-05-09T00:20:09.758Z,1008.29
2023-05-09T00:20:30.822Z,1008.29
2023-05-09T00:20:51.886Z,1008.29
2023-05-09T00:21:12.933Z,1008.27
2023-05-09T00:21:34.004Z,1008.25
2023-05-09T00:21:55.057Z,1008.29
2023-05-09T00:22:16.130Z,1008.25
2023-05-09T00:22:37.176Z,1008.29
2023-05-09T00:22:58.239Z,1008.29
2023-05-09T00:23:19.298Z,1008.27
2023-05-09T00:23:40.371Z,1008.27
2023-05-09T00:24:01.453Z,1008.23
2023-05-09T00:24:22.559Z,1008.23
2023-05-09T00:24:43.613Z,1008.25
2023-05-09T00:25:04.671Z,1008.23
2023-05-09T00:25:25.723Z,1008.23
2023-05-09T00:25:46.804Z,1008.21
2023-05-09T00:26:07.843Z,1008.21
2023-05-09T00:26:28.922Z,1008.19
2023-05-09T00:26:49.986Z,1008.21
2023-05-09T00:27:11.035Z,1008.15
2023-05-09T00:27:32.103Z,1008.17
2023-05-09T00:27:53.158Z,1008.15
2023-05-09T00:28:14.214Z,1008.19
2023-05-09T00:28:35.291Z,1008.17
2023-05-09T00:28:56.333Z,1008.17
2023-05-09T00:29:17.726Z,1008.17
2023-05-09T00:29:38.789Z,1008.13
2023-05-09T00:29:59.838Z,1008.15
2023-05-09T00:30:20.913Z,1008.15
2023-05-09T00:30:41.968Z,1008.13
2023-05-09T00:31:03.958Z,1008.13
2023-05-09T00:31:25.038Z,1008.11
2023-05-09T00:31:46.148Z,1008.13
2023-05-09T00:32:07.265Z,1008.11
2023-05-09T00:32:28.387Z,1008.09
2023-05-09T00:32:49.502Z,1008.09
2023-05-09T00:33:10.600Z,1008.13
2023-05-09T00:33:31.668Z,1008.09
2023-05-09T00:33:52.728Z,1008.09
2023-05-09T00:34:13.778Z,1008.07
2023-05-09T00:34:34.897Z,1008.05
2023-05-09T00:34:56.014Z,1008.11
2023-05-09T00:35:17.244Z,1008.09
2023-05-09T00:35:38.384Z,1008.09
2023-05-09T00:35:59.967Z,1008.09
2023-05-09T00:36:21.978Z,1008.07
2023-05-09T00:36:43.013Z,1008.09
2023-05-09T00:37:04.072Z,1008.09
2023-05-09T00:37:25.127Z,1008.09
2023-05-09T00:37:46.189Z,1008.09
2023-05-09T00:38:07.250Z,1008.09
2023-05-09T00:38:28.383Z,1008.09
2023-05-09T00:38:49.427Z,1008.09
2023-05-09T00:39:10.488Z,1008.11
2023-05-09T00:39:31.549Z,1008.09
2023-05-09T00:39:52.852Z,1008.11
2023-05-09T00:40:14.109Z,1008.09
2023-05-09T00:40:35.181Z,1008.11
2023-05-09T00:40:56.243Z,1008.11
2023-05-09T00:41:17.330Z,1008.09
2023-05-09T00:41:38.403Z,1008.09
2023-05-09T00:41:59.470Z,1008.09
2023-05-09T00:42:20.538Z,1008.11
2023-05-09T00:42:41.605Z,1008.11
2023-05-09T00:43:02.693Z,1008.11
2023-05-09T00:43:23.726Z,1008.11
2023-05-09T00:43:44.777Z,1008.09
2023-05-09T00:44:05.849Z,1008.11
2023-05-09T00:44:27.020Z,1008.09
2023-05-09T00:44:48.048Z,1008.09
2023-05-09T00:45:09.137Z,1008.09
2023-05-09T00:45:30.237Z,1008.07
2023-05-09T00:45:51.359Z,1008.09
2023-05-09T00:46:12.476Z,1008.11
2023-05-09T00:46:33.562Z,1008.07
2023-05-09T00:46:54.624Z,1008.09
2023-05-09T00:47:15.679Z,1008.09
2023-05-09T00:47:36.777Z,1008.07
2023-05-09T00:47:57.880Z,1008.07
2023-05-09T00:48:18.938Z,1008.07
2023-05-09T00:48:39.998Z,1008.07
2023-05-09T00:49:01.059Z,1008.05
2023-05-09T00:49:22.115Z,1008.05
2023-05-09T00:49:43.207Z,1008.03
2023-05-09T00:50:04.253Z,1008.03
2023-05-09T00:50:25.375Z,1008.03
2023-05-09T00:50:46.517Z,1008.01
2023-05-09T00:51:07.580Z,1008.01
2023-05-09T00:51:28.660Z,1007.99
2023-05-09T00:51:49.726Z,1007.99
2023-05-09T00:52:10.773Z,1007.97
2023-05-09T00:52:31.851Z,1007.97
2023-05-09T00:52:52.904Z,1007.95
2023-05-09T00:53:13.999Z,1007.97
2023-05-09T00:53:35.054Z,1007.95
2023-05-09T00:53:56.108Z,1007.97
2023-05-09T00:54:17.178Z,1007.87
2023-05-09T00:54:38.243Z,1007.95
2023-05-09T00:54:59.294Z,1007.87
2023-05-09T00:55:20.359Z,1007.95
2023-05-09T00:55:41.634Z,1007.87
2023-05-09T00:56:02.908Z,1007.95
2023-05-09T00:56:23.971Z,1007.85
2023-05-09T00:56:45.041Z,1007.87
2023-05-09T00:57:06.107Z,1007.85
2023-05-09T00:57:27.175Z,1007.87
2023-05-09T00:57:48.220Z,1007.85
2023-05-09T00:58:09.284Z,1007.83
2023-05-09T00:58:30.356Z,1007.83
2023-05-09T00:58:51.414Z,1007.83
2023-05-09T00:59:12.483Z,1007.85
2023-05-09T00:59:33.661Z,1007.87
2023-05-09T00:59:54.692Z,1007.85
2023-05-09T01:00:15.754Z,1007.85
2023-05-09T01:00:36.804Z,1007.83
2023-05-09T01:00:58.082Z,1007.83
2023-05-09T01:01:19.225Z,1007.83
2023-05-09T01:01:40.314Z,1007.79
2023-05-09T01:02:01.336Z,1007.83
2023-05-09T01:02:22.490Z,1007.81
2023-05-09T01:02:43.748Z,1007.81
2023-05-09T01:03:04.984Z,1007.81
2023-05-09T01:03:26.154Z,1007.81
2023-05-09T01:03:47.274Z,1007.79
2023-05-09T01:04:08.391Z,1007.79
2023-05-09T01:04:29.441Z,1007.77
2023-05-09T01:04:50.512Z,1007.77
2023-05-09T01:05:11.702Z,1007.81
2023-05-09T01:05:32.796Z,1007.77
2023-05-09T01:05:53.860Z,1007.71
2023-05-09T01:06:14.947Z,1007.77
2023-05-09T01:06:36.251Z,1007.75
2023-05-09T01:06:57.295Z,1007.77
2023-05-09T01:07:18.368Z,1007.73
2023-05-09T01:07:39.432Z,1007.71
2023-05-09T01:08:00.493Z,1007.75
2023-05-09T01:08:21.555Z,1007.71
2023-05-09T01:08:42.627Z,1007.71
2023-05-09T01:09:03.691Z,1007.71
2023-05-09T01:09:24.765Z,1007.73
2023-05-09T01:09:45.830Z,1007.71
2023-05-09T01:10:06.886Z,1007.73
2023-05-09T01:10:27.931Z,1007.71
2023-05-09T01:10:49.005Z,1007.71
2023-05-09T01:11:10.077Z,1007.71
2023-05-09T01:11:31.355Z,1007.71
2023-05-09T01:11:52.443Z,1007.67
2023-05-09T01:12:13.507Z,1007.71
2023-05-09T01:12:34.614Z,1007.69
2023-05-09T01:12:55.707Z,1007.69
2023-05-09T01:13:16.773Z,1007.73
2023-05-09T01:13:37.817Z,1007.71
2023-05-09T01:13:58.873Z,1007.69
2023-05-09T01:14:19.930Z,1007.73
2023-05-09T01:14:41.107Z,1007.69
2023-05-09T01:15:02.162Z,1007.69
2023-05-09T01:15:23.180Z,1007.73
2023-05-09T01:15:44.273Z,1007.73
2023-05-09T01:16:05.444Z,1007.73
2023-05-09T01:16:26.786Z,1007.73
2023-05-09T01:16:48.148Z,1007.71
2023-05-09T01:17:09.239Z,1007.71
2023-05-09T01:17:30.321Z,1007.73
2023-05-09T01:17:51.388Z,1007.69
2023-05-09T01:18:12.514Z,1007.71
2023-05-09T01:18:33.585Z,1007.69
2023-05-09T01:18:54.649Z,1007.73
2023-05-09T01:19:15.721Z,1007.71
2023-05-09T01:19:36.776Z,1007.69
2023-05-09T01:19:57.832Z,1007.67
2023-05-09T01:20:18.896Z,1007.69
2023-05-09T01:20:39.960Z,1007.69
2023-05-09T01:21:01.012Z,1007.71
2023-05-09T01:21:22.071Z,1007.69
2023-05-09T01:21:43.132Z,1007.69
2023-05-09T01:22:04.416Z,1007.71
2023-05-09T01:22:25.499Z,1007.71
2023-05-09T01:22:46.556Z,1007.69
2023-05-09T01:23:07.614Z,1007.69
2023-05-09T01:23:28.688Z,1007.69
2023-05-09T01:23:49.731Z,1007.71
2023-05-09T01:24:10.798Z,1007.71
2023-05-09T01:24:31.858Z,1007.69
2023-05-09T01:24:52.898Z,1007.65
2023-05-09T01:25:14.207Z,1007.69
2023-05-09T01:25:35.443Z,1007.69
2023-05-09T01:25:56.514Z,1007.69
2023-05-09T01:26:17.591Z,1007.71
2023-05-09T01:26:38.646Z,1007.67
2023-05-09T01:26:59.717Z,1007.69
2023-05-09T01:27:20.828Z,1007.69
2023-05-09T01:27:42.092Z,1007.71
2023-05-09T01:28:03.167Z,1007.71
2023-05-09T01:28:24.227Z,1007.71
2023-05-09T01:28:45.290Z,1007.65
2023-05-09T01:29:06.373Z,1007.67
2023-05-09T01:29:27.405Z,1007.67
2023-05-09T01:29:48.608Z,1007.67
2023-05-09T01:30:09.628Z,1007.63
2023-05-09T01:30:30.697Z,1007.67
2023-05-09T01:30:51.756Z,1007.65
2023-05-09T01:31:12.812Z,1007.63
2023-05-09T01:31:33.911Z,1007.65
2023-05-09T01:31:54.962Z,1007.63
2023-05-09T01:32:16.054Z,1007.63
2023-05-09T01:32:37.184Z,1007.61
2023-05-09T01:32:58.505Z,1007.63
2023-05-09T01:33:19.591Z,1007.65
2023-05-09T01:33:40.680Z,1007.61
2023-05-09T01:34:01.738Z,1007.61
2023-05-09T01:34:22.805Z,1007.61
2023-05-09T01:34:43.886Z,1007.65
2023-05-09T01:35:05.028Z,1007.63
2023-05-09T01:35:26.074Z,1007.61
2023-05-09T01:35:47.129Z,1007.61
2023-05-09T01:36:08.221Z,1007.61
2023-05-09T01:36:29.257Z,1007.61
2023-05-09T01:36:50.326Z,1007.59
2023-05-09T01:37:11.383Z,1007.59
2023-05-09T01:37:32.445Z,1007.61
2023-05-09T01:37:53.731Z,1007.61
2023-05-09T01:38:15.017Z,1007.63
2023-05-09T01:38:36.068Z,1007.63
2023-05-09T01:38:57.140Z,1007.61
2023-05-09T01:39:18.192Z,1007.63
2023-05-09T01:39:39.249Z,1007.59
2023-05-09T01:40:00.310Z,1007.59
2023-05-09T01:40:21.383Z,1007.61
2023-05-09T01:40:42.462Z,1007.63
2023-05-09T01:41:03.494Z,1007.63
2023-05-09T01:41:24.549Z,1007.61
2023-05-09T01:41:45.629Z,1007.63
2023-05-09T01:42:06.702Z,1007.63
2023-05-09T01:42:27.755Z,1007.63
2023-05-09T01:42:48.823Z,1007.65
2023-05-09T01:43:10.087Z,1007.59
2023-05-09T01:43:31.409Z,1007.59
2023-05-09T01:43:52.461Z,1007.59
2023-05-09T01:44:13.585Z,1007.61
2023-05-09T01:44:34.609Z,1007.59
2023-05-09T01:44:55.792Z,1007.59
2023-05-09T01:45:17.274Z,1007.59
2023-05-09T01:45:38.421Z,1007.59
2023-05-09T01:45:59.478Z,1007.61
2023-05-09T01:46:20.579Z,1007.61
2023-05-09T01:46:41.682Z,1007.61
2023-05-09T01:47:02.725Z,1007.59
2023-05-09T01:47:23.808Z,1007.61
2023-05-09T01:47:44.887Z,1007.59
2023-05-09T01:48:05.939Z,1007.61
2023-05-09T01:48:27.035Z,1007.61
2023-05-09T01:48:48.138Z,1007.61
2023-05-09T01:49:09.183Z,1007.61
2023-05-09T01:49:30.227Z,1007.61
2023-05-09T01:49:51.301Z,1007.63
2023-05-09T01:50:12.370Z,1007.59
2023-05-09T01:50:33.443Z,1007.61
2023-05-09T01:50:54.497Z,1007.61
2023-05-09T01:51:15.577Z,1007.61
2023-05-09T01:51:36.620Z,1007.61
2023-05-09T01:51:57.675Z,1007.59
2023-05-09T01:52:18.762Z,1007.61
2023-05-09T01:52:39.809Z,1007.61
2023-05-09T01:53:00.862Z,1007.61
2023-05-09T01:53:21.927Z,1007.61
2023-05-09T01:53:43.205Z,1007.61
2023-05-09T01:54:04.446Z,1007.59
2023-05-09T01:54:25.499Z,1007.59
2023-05-09T01:54:46.573Z,1007.59
2023-05-09T01:55:07.630Z,1007.59
2023-05-09T01:55:28.690Z,1007.61
2023-05-09T01:55:49.739Z,1007.59
2023-05-09T01:56:10.812Z,1007.57
2023-05-09T01:56:31.864Z,1007.57
2023-05-09T01:56:52.934Z,1007.57
2023-05-09T01:57:13.992Z,1007.59
2023-05-09T01:57:35.063Z,1007.59
2023-05-09T01:57:56.118Z,1007.52
2023-05-09T01:58:17.177Z,1007.54
2023-05-09T01:58:38.251Z,1007.54
2023-05-09T01:58:59.512Z,1007.56
2023-05-09T01:59:41.768Z,1007.56
2023-05-09T02:00:02.960Z,1007.56
2023-05-09T02:00:24.016Z,1007.54
2023-05-09T02:00:45.125Z,1007.56
2023-05-09T02:01:06.219Z,1007.56
2023-05-09T02:01:27.281Z,1007.56
2023-05-09T02:01:48.359Z,1007.56
2023-05-09T02:02:09.420Z,1007.56
2023-05-09T02:02:30.503Z,1007.52
2023-05-09T02:02:51.699Z,1007.54
2023-05-09T02:03:12.838Z,1007.54
2023-05-09T02:03:33.922Z,1007.54
2023-05-09T02:03:54.980Z,1007.54
2023-05-09T02:04:16.257Z,1007.54
2023-05-09T02:04:37.349Z,1007.54
2023-05-09T02:04:58.415Z,1007.52
2023-05-09T02:05:19.483Z,1007.54
2023-05-09T02:05:40.534Z,1007.50
2023-05-09T02:06:01.600Z,1007.54
2023-05-09T02:06:22.660Z,1007.52
2023-05-09T02:06:43.722Z,1007.54
2023-05-09T02:07:04.785Z,1007.54
2023-05-09T02:07:25.865Z,1007.54
2023-05-09T02:07:46.903Z,1007.54
2023-05-09T02:08:07.966Z,1007.54
2023-05-09T02:08:29.031Z,1007.52
2023-05-09T02:08:50.097Z,1007.52
2023-05-09T02:09:11.149Z,1007.54
2023-05-09T02:09:32.466Z,1007.56
2023-05-09T02:09:53.705Z,1007.54
2023-05-09T02:10:14.762Z,1007.52
2023-05-09T02:10:35.813Z,1007.50
2023-05-09T02:10:56.882Z,1007.52
2023-05-09T02:11:17.963Z,1007.50
2023-05-09T02:11:39.007Z,1007.54
2023-05-09T02:12:00.091Z,1007.52
2023-05-09T02:12:21.168Z,1007.50
2023-05-09T02:12:42.281Z,1007.48
2023-05-09T02:13:03.379Z,1007.50
2023-05-09T02:13:24.448Z,1007.46
2023-05-09T02:13:45.532Z,1007.44
2023-05-09T02:14:06.612Z,1007.44
2023-05-09T02:14:27.663Z,1007.44
2023-05-09T02:14:48.815Z,1007.42
2023-05-09T02:15:10.058Z,1007.40
2023-05-09T02:15:31.074Z,1007.40
2023-05-09T02:15:52.131Z,1007.38
2023-05-09T02:16:13.247Z,1007.38
2023-05-09T02:16:34.340Z,1007.38
2023-05-09T02:16:55.412Z,1007.36
2023-05-09T02:17:16.445Z,1007.36
2023-05-09T02:17:37.518Z,1007.32
2023-05-09T02:17:58.641Z,1007.34
2023-05-09T02:18:19.706Z,1007.32
2023-05-09T02:18:40.782Z,1007.32
2023-05-09T02:19:01.817Z,1007.28
2023-05-09T02:19:22.887Z,1007.30
2023-05-09T02:19:43.944Z,1007.28
2023-05-09T02:20:05.064Z,1007.26
2023-05-09T02:20:26.155Z,1007.28
2023-05-09T02:20:47.247Z,1007.26
2023-05-09T02:21:08.321Z,1007.28
2023-05-09T02:21:29.446Z,1007.28
2023-05-09T02:21:50.493Z,1007.26
2023-05-09T02:22:11.548Z,1007.28
2023-05-09T02:22:32.616Z,1007.26
2023-05-09T02:22:53.675Z,1007.26
2023-05-09T02:23:14.747Z,1007.24
2023-05-09T02:23:35.783Z,1007.24
2023-05-09T02:23:56.865Z,1007.26
2023-05-09T02:24:17.916Z,1007.26
2023-05-09T02:24:38.991Z,1007.26
2023-05-09T02:25:00.078Z,1007.28
2023-05-09T02:25:21.325Z,1007.28
2023-05-09T02:25:42.620Z,1007.28
2023-05-09T02:26:03.664Z,1007.30
2023-05-09T02:26:24.720Z,1007.30
2023-05-09T02:26:45.775Z,1007.24
2023-05-09T02:27:06.836Z,1007.24
2023-05-09T02:27:27.911Z,1007.28
2023-05-09T02:27:48.967Z,1007.26
2023-05-09T02:28:10.046Z,1007.28
2023-05-09T02:28:31.109Z,1007.26
2023-05-09T02:28:52.188Z,1007.24
2023-05-09T02:29:13.246Z,1007.26
2023-05-09T02:29:34.303Z,1007.28
2023-05-09T02:29:55.352Z,1007.30
2023-05-09T02:30:16.544Z,1007.30
2023-05-09T02:30:37.609Z,1007.30
2023-05-09T02:30:58.734Z,1007.28
2023-05-09T02:31:19.834Z,1007.30
2023-05-09T02:31:40.910Z,1007.28
2023-05-09T02:32:02.008Z,1007.28
2023-05-09T02:32:23.021Z,1007.30
2023-05-09T02:32:44.112Z,1007.30
2023-05-09T02:33:05.225Z,1007.32
2023-05-09T02:33:26.299Z,1007.32
2023-05-09T02:33:47.369Z,1007.34
2023-05-09T02:34:08.415Z,1007.32
2023-05-09T02:34:29.493Z,1007.30
2023-05-09T02:34:50.545Z,1007.32
2023-05-09T02:35:11.619Z,1007.34
2023-05-09T02:35:32.682Z,1007.34
2023-05-09T02:35:53.757Z,1007.30
2023-05-09T02:36:14.863Z,1007.30
2023-05-09T02:36:35.935Z,1007.30
2023-05-09T02:36:56.990Z,1007.30
2023-05-09T02:37:18.060Z,1007.30
2023-05-09T02:37:39.120Z,1007.32
2023-05-09T02:38:00.245Z,1007.28
2023-05-09T02:38:21.295Z,1007.28
2023-05-09T02:38:42.354Z,1007.28
2023-05-09T02:39:03.413Z,1007.30
2023-05-09T02:39:24.486Z,1007.28
2023-05-09T02:39:45.559Z,1007.26
2023-05-09T02:40:06.617Z,1007.26
2023-05-09T02:40:27.790Z,1007.26
2023-05-09T02:40:50.912Z,1007.24
2023-05-09T02:41:13.292Z,1007.26
2023-05-09T02:41:34.566Z,1007.22
2023-05-09T02:41:55.630Z,1007.24
2023-05-09T02:42:16.692Z,1007.20
2023-05-09T02:42:37.750Z,1007.20
2023-05-09T02:42:58.805Z,1007.22
2023-05-09T02:43:19.869Z,1007.20
2023-05-09T02:43:40.940Z,1007.20
2023-05-09T02:44:02.013Z,1007.20
2023-05-09T02:44:23.079Z,1007.20
2023-05-09T02:44:44.121Z,1007.16
2023-05-09T02:45:05.188Z,1007.20
2023-05-09T02:45:26.395Z,1007.20
2023-05-09T02:45:47.455Z,1007.20
2023-05-09T02:46:08.505Z,1007.18
2023-05-09T02:46:29.699Z,1007.16
2023-05-09T02:46:50.973Z,1007.20
2023-05-09T02:47:12.027Z,1007.16
2023-05-09T02:47:33.110Z,1007.18
2023-05-09T02:47:54.193Z,1007.18
2023-05-09T02:48:15.236Z,1007.20
2023-05-09T02:48:36.299Z,1007.20
2023-05-09T02:48:57.358Z,1007.18
2023-05-09T02:49:31.466Z,1007.20
2023-05-09T02:49:45.392Z,1007.18
2023-05-09T02:50:06.466Z,1007.18
2023-05-09T02:50:27.508Z,1007.20
2023-05-09T02:50:48.568Z,1007.20
2023-05-09T02:51:09.625Z,1007.12
2023-05-09T02:51:30.725Z,1007.14
2023-05-09T02:51:51.816Z,1007.14
2023-05-09T02:52:12.874Z,1007.14
2023-05-09T02:52:33.927Z,1007.14
2023-05-09T02:52:55.005Z,1007.10
2023-05-09T02:53:16.061Z,1007.12
2023-05-09T02:53:37.117Z,1007.14
2023-05-09T02:53:58.196Z,1007.14
2023-05-09T02:54:19.234Z,1007.10
2023-05-09T02:54:40.304Z,1007.12
2023-05-09T02:55:01.377Z,1007.12
2023-05-09T02:55:22.420Z,1007.12
2023-05-09T02:55:43.517Z,1007.12
2023-05-09T02:56:04.539Z,1007.12
2023-05-09T02:56:25.601Z,1007.12
2023-05-09T02:56:46.856Z,1007.10
2023-05-09T02:57:07.935Z,1007.12
2023-05-09T02:57:28.979Z,1007.12
2023-05-09T02:57:56.207Z,1007.10
2023-05-09T02:58:17.008Z,1007.09
2023-05-09T02:58:38.072Z,1007.10
2023-05-09T02:58:59.122Z,1007.10
2023-05-09T02:59:20.194Z,1007.10
2023-05-09T02:59:41.252Z,1007.10
2023-05-09T03:00:02.336Z,1007.10
2023-05-09T03:00:23.370Z,1007.10
2023-05-09T03:00:44.553Z,1007.09
2023-05-09T03:01:05.645Z,1007.07
2023-05-09T03:01:26.769Z,1007.05
2023-05-09T03:01:47.922Z,1007.09
2023-05-09T03:02:08.964Z,1007.09
2023-05-09T03:02:30.138Z,1007.09
2023-05-09T03:02:51.260Z,1007.07
2023-05-09T03:03:12.387Z,1007.07
2023-05-09T03:03:33.554Z,1007.07
2023-05-09T03:03:54.700Z,1007.07
2023-05-09T03:04:15.776Z,1007.07
2023-05-09T03:04:36.823Z,1007.05
2023-05-09T03:04:57.869Z,1007.05
2023-05-09T03:05:18.936Z,1007.03
2023-05-09T03:05:40.006Z,1007.03
2023-05-09T03:06:01.056Z,1007.05
2023-05-09T03:06:22.111Z,1007.01
2023-05-09T03:06:43.179Z,1007.01
2023-05-09T03:07:04.429Z,1007.01
2023-05-09T03:07:25.740Z,1007.01
2023-05-09T03:07:46.780Z,1006.95
2023-05-09T03:08:07.867Z,1007.01
2023-05-09T03:08:28.899Z,1006.99
2023-05-09T03:08:49.971Z,1006.97
2023-05-09T03:09:11.037Z,1006.95
2023-05-09T03:09:32.096Z,1006.95
2023-05-09T03:09:53.152Z,1006.95
2023-05-09T03:10:14.226Z,1006.95
2023-05-09T03:10:35.272Z,1006.93
2023-05-09T03:10:56.359Z,1006.93
2023-05-09T03:11:17.395Z,1006.95
2023-05-09T03:11:38.464Z,1006.93
2023-05-09T03:11:59.516Z,1006.95
2023-05-09T03:12:41.652Z,1006.95
2023-05-09T03:13:02.913Z,1006.93
2023-05-09T03:13:24.037Z,1006.95
2023-05-09T03:13:45.140Z,1006.95
2023-05-09T03:14:06.193Z,1006.91
2023-05-09T03:14:27.255Z,1006.91
2023-05-09T03:14:48.314Z,1006.93
2023-05-09T03:15:09.373Z,1006.95
2023-05-09T03:15:30.442Z,1006.95
2023-05-09T03:15:51.660Z,1006.95
2023-05-09T03:16:12.756Z,1006.93
2023-05-09T03:16:33.808Z,1006.95
2023-05-09T03:16:54.873Z,1006.95
2023-05-09T03:17:15.939Z,1006.95
2023-05-09T03:17:37.107Z,1006.97
2023-05-09T03:17:58.226Z,1006.95
2023-05-09T03:18:19.483Z,1006.99
2023-05-09T03:18:40.546Z,1006.97
2023-05-09T03:19:01.611Z,1006.97
2023-05-09T03:19:22.663Z,1006.97
2023-05-09T03:19:43.729Z,1006.97
2023-05-09T03:20:04.782Z,1006.97
2023-05-09T03:20:25.854Z,1006.99
2023-05-09T03:20:46.925Z,1006.97
2023-05-09T03:21:07.998Z,1006.95
2023-05-09T03:21:29.050Z,1006.99
2023-05-09T03:21:50.125Z,1006.99
2023-05-09T03:22:11.188Z,1007.01
2023-05-09T03:22:32.246Z,1007.01
2023-05-09T03:22:53.325Z,1006.97
2023-05-09T03:23:14.436Z,1006.99
2023-05-09T03:23:35.725Z,1006.99
2023-05-09T03:23:56.776Z,1006.99
2023-05-09T03:24:17.844Z,1006.99
2023-05-09T03:24:38.908Z,1006.93
2023-05-09T03:25:00.002Z,1006.99
2023-05-09T03:25:21.085Z,1006.95
2023-05-09T03:25:42.129Z,1006.93
2023-05-09T03:26:03.197Z,1006.93
2023-05-09T03:26:24.258Z,1006.95
2023-05-09T03:26:45.321Z,1006.93
2023-05-09T03:27:06.384Z,1006.91
2023-05-09T03:27:27.442Z,1006.91
2023-05-09T03:27:48.519Z,1006.93
2023-05-09T03:28:09.565Z,1006.93
2023-05-09T03:28:30.655Z,1006.91
2023-05-09T03:28:51.766Z,1006.93
2023-05-09T03:29:12.819Z,1006.89
2023-05-09T03:29:33.888Z,1006.89
2023-05-09T03:29:54.956Z,1006.89
2023-05-09T03:30:16.001Z,1006.91
2023-05-09T03:30:37.060Z,1006.91
2023-05-09T03:30:58.241Z,1006.91
2023-05-09T03:31:19.302Z,1006.87
2023-05-09T03:31:40.406Z,1006.89
2023-05-09T03:32:01.456Z,1006.85
2023-05-09T03:32:22.535Z,1006.85
2023-05-09T03:32:43.601Z,1006.87
2023-05-09T03:33:04.781Z,1006.85
2023-05-09T03:33:25.855Z,1006.87
2023-05-09T03:33:47.138Z,1006.87
2023-05-09T03:34:08.258Z,1006.87
2023-05-09T03:34:29.298Z,1006.87
2023-05-09T03:34:50.356Z,1006.85
2023-05-09T03:35:11.422Z,1006.87
2023-05-09T03:35:32.472Z,1006.85
2023-05-09T03:35:53.549Z,1006.85
2023-05-09T03:36:14.614Z,1006.85
2023-05-09T03:36:35.695Z,1006.85
2023-05-09T03:36:56.736Z,1006.85
2023-05-09T03:37:17.788Z,1006.81
2023-05-09T03:37:38.853Z,1006.85
2023-05-09T03:37:59.901Z,1006.85
2023-05-09T03:38:20.966Z,1006.85
2023-05-09T03:38:42.041Z,1006.85
2023-05-09T03:39:03.147Z,1006.87
2023-05-09T03:39:24.398Z,1006.85
2023-05-09T03:39:45.456Z,1006.87
2023-05-09T03:40:06.573Z,1006.89
2023-05-09T03:40:27.619Z,1006.87
2023-05-09T03:40:48.678Z,1006.87
2023-05-09T03:41:09.746Z,1006.87
2023-05-09T03:41:30.794Z,1006.89
2023-05-09T03:41:51.858Z,1006.89
2023-05-09T03:42:12.947Z,1006.89
2023-05-09T03:42:34.008Z,1006.89
2023-05-09T03:42:55.051Z,1006.85
2023-05-09T03:43:16.137Z,1006.85
2023-05-09T03:43:37.187Z,1006.87
2023-05-09T03:43:58.232Z,1006.83
2023-05-09T03:44:19.568Z,1006.85
2023-05-09T03:44:40.801Z,1006.85
2023-05-09T03:45:01.852Z,1006.83
2023-05-09T03:45:22.919Z,1006.85
2023-05-09T03:45:44.002Z,1006.81
2023-05-09T03:46:05.163Z,1006.87
2023-05-09T03:46:26.231Z,1006.85
2023-05-09T03:46:47.382Z,1006.85
2023-05-09T03:47:08.439Z,1006.85
2023-05-09T03:47:29.551Z,1006.85
2023-05-09T03:47:50.641Z,1006.83
2023-05-09T03:48:11.728Z,1006.83
2023-05-09T03:48:32.785Z,1006.83
2023-05-09T03:48:53.842Z,1006.83
2023-05-09T03:49:14.903Z,1006.83
2023-05-09T03:49:36.011Z,1006.83
2023-05-09T03:49:57.109Z,1006.81
2023-05-09T03:50:18.173Z,1006.83
2023-05-09T03:50:39.229Z,1006.83
2023-05-09T03:51:00.296Z,1006.81
2023-05-09T03:51:21.362Z,1006.83
2023-05-09T03:51:42.430Z,1006.83
2023-05-09T03:52:03.466Z,1006.83
2023-05-09T03:52:24.531Z,1006.75
2023-05-09T03:52:45.584Z,1006.75
2023-05-09T03:53:06.649Z,1006.77
2023-05-09T03:53:27.729Z,1006.77
2023-05-09T03:53:48.792Z,1006.77
2023-05-09T03:54:09.862Z,1006.79
2023-05-09T03:54:30.923Z,1006.77
2023-05-09T03:54:52.199Z,1006.81
2023-05-09T03:55:13.667Z,1006.77
2023-05-09T03:55:34.918Z,1006.75
2023-05-09T03:55:55.982Z,1006.79
2023-05-09T03:56:17.053Z,1006.79
2023-05-09T03:56:38.107Z,1006.81
2023-05-09T03:56:59.151Z,1006.81
2023-05-09T03:57:20.215Z,1006.81
2023-05-09T03:57:41.273Z,1006.81
2023-05-09T03:58:02.331Z,1006.79
2023-05-09T03:58:23.401Z,1006.79
2023-05-09T03:58:44.467Z,1006.79
2023-05-09T03:59:05.510Z,1006.79
2023-05-09T03:59:26.585Z,1006.79
2023-05-09T03:59:47.644Z,1006.81
2023-05-09T04:00:08.748Z,1006.81
2023-05-09T04:00:29.841Z,1006.79
2023-05-09T04:00:50.893Z,1006.81
2023-05-09T04:01:11.989Z,1006.77
2023-05-09T04:01:33.079Z,1006.77
2023-05-09T04:01:54.196Z,1006.81
2023-05-09T04:02:15.285Z,1006.75
2023-05-09T04:02:36.494Z,1006.75
2023-05-09T04:02:57.638Z,1006.73
2023-05-09T04:03:18.782Z,1006.75
2023-05-09T04:03:40.101Z,1006.75
2023-05-09T04:04:01.227Z,1006.75
2023-05-09T04:04:22.324Z,1006.75
2023-05-09T04:04:43.374Z,1006.75
2023-05-09T04:05:04.455Z,1006.75
2023-05-09T04:05:25.739Z,1006.73
2023-05-09T04:05:46.828Z,1006.73
2023-05-09T04:06:07.875Z,1006.71
2023-05-09T04:06:28.929Z,1006.71
2023-05-09T04:06:50.004Z,1006.73
2023-05-09T04:07:11.073Z,1006.71
2023-05-09T04:07:32.132Z,1006.71
2023-05-09T04:07:53.194Z,1006.71
2023-05-09T04:08:14.253Z,1006.73
2023-05-09T04:08:35.318Z,1006.71
2023-05-09T04:08:56.371Z,1006.67
2023-05-09T04:09:17.447Z,1006.69
2023-05-09T04:09:38.519Z,1006.69
2023-05-09T04:09:59.555Z,1006.69
2023-05-09T04:10:20.621Z,1006.69
2023-05-09T04:10:41.715Z,1006.67
2023-05-09T04:11:02.808Z,1006.71
2023-05-09T04:11:23.870Z,1006.73
2023-05-09T04:11:44.934Z,1006.71
2023-05-09T04:12:06.007Z,1006.71
2023-05-09T04:12:27.056Z,1006.67
2023-05-09T04:12:48.129Z,1006.71
2023-05-09T04:13:09.215Z,1006.71
2023-05-09T04:13:30.383Z,1006.71
2023-05-09T04:13:51.470Z,1006.67
2023-05-09T04:14:12.536Z,1006.69
2023-05-09T04:14:33.594Z,1006.69
2023-05-09T04:14:54.651Z,1006.69
2023-05-09T04:15:15.967Z,1006.69
2023-05-09T04:15:37.152Z,1006.67
2023-05-09T04:15:58.420Z,1006.69